sensor_id;sensor_type;location;lat;lon;timestamp;P1;durP1;ratioP1;P2;durP2;ratioP2
55063;SDS011;40963;52.168;21.296;2022-12-29T00:01:29;16.35;;;7.18;;
55063;SDS011;40963;52.168;21.296;2022-12-29T00:03:55;13.80;;;6.50;;
55063;SDS011;40963;52.168;21.296;2022-12-29T00:06:20;19.67;;;7.68;;
55063;SDS011;40963;52.168;21.296;2022-12-29T00:08:46;7.63;;;3.08;;
55063;SDS011;40963;52.168;21.296;2022-12-29T00:11:14;9.52;;;4.13;;
55063;SDS011;40963;52.168;21.296;2022-12-29T00:13:41;15.70;;;7.18;;
55063;SDS011;40963;52.168;21.296;2022-12-29T00:16:26;17.55;;;7.25;;
55063;SDS011;40963;52.168;21.296;2022-12-29T00:18:53;13.07;;;5.70;;
55063;SDS011;40963;52.168;21.296;2022-12-29T00:21:20;12.15;;;5.53;;
55063;SDS011;40963;52.168;21.296;2022-12-29T00:24:06;7.82;;;3.67;;
55063;SDS011;40963;52.168;21.296;2022-12-29T00:27:12;16.23;;;7.47;;
55063;SDS011;40963;52.168;21.296;2022-12-29T00:29:56;8.23;;;4.10;;
55063;SDS011;40963;52.168;21.296;2022-12-29T00:32:41;18.55;;;6.65;;
55063;SDS011;40963;52.168;21.296;2022-12-29T00:35:29;13.25;;;5.03;;
55063;SDS011;40963;52.168;21.296;2022-12-29T00:37:59;11.32;;;5.75;;
55063;SDS011;40963;52.168;21.296;2022-12-29T00:40:46;13.77;;;6.80;;
55063;SDS011;40963;52.168;21.296;2022-12-29T00:43:30;24.90;;;9.85;;
55063;SDS011;40963;52.168;21.296;2022-12-29T00:46:14;35.63;;;10.90;;
55063;SDS011;40963;52.168;21.296;2022-12-29T00:48:40;40.50;;;11.73;;
55063;SDS011;40963;52.168;21.296;2022-12-29T00:51:24;54.75;;;16.58;;
55063;SDS011;40963;52.168;21.296;2022-12-29T00:53:50;46.63;;;13.60;;
55063;SDS011;40963;52.168;21.296;2022-12-29T00:56:15;26.27;;;8.90;;
55063;SDS011;40963;52.168;21.296;2022-12-29T00:58:41;24.00;;;8.85;;
55063;SDS011;40963;52.168;21.296;2022-12-29T01:01:07;11.77;;;4.78;;
55063;SDS011;40963;52.168;21.296;2022-12-29T01:03:34;11.35;;;4.30;;
55063;SDS011;40963;52.168;21.296;2022-12-29T01:06:05;16.83;;;5.18;;
55063;SDS011;40963;52.168;21.296;2022-12-29T01:08:32;24.77;;;7.65;;
55063;SDS011;40963;52.168;21.296;2022-12-29T01:11:03;16.13;;;6.47;;
55063;SDS011;40963;52.168;21.296;2022-12-29T01:13:33;21.33;;;6.72;;
55063;SDS011;40963;52.168;21.296;2022-12-29T01:15:59;13.15;;;6.05;;
55063;SDS011;40963;52.168;21.296;2022-12-29T01:18:25;16.75;;;6.30;;
55063;SDS011;40963;52.168;21.296;2022-12-29T01:21:02;16.10;;;6.20;;
55063;SDS011;40963;52.168;21.296;2022-12-29T01:23:30;12.38;;;4.80;;
55063;SDS011;40963;52.168;21.296;2022-12-29T01:25:56;13.55;;;6.70;;
55063;SDS011;40963;52.168;21.296;2022-12-29T01:28:22;16.85;;;7.32;;
55063;SDS011;40963;52.168;21.296;2022-12-29T01:30:47;17.67;;;7.07;;
55063;SDS011;40963;52.168;21.296;2022-12-29T01:33:13;17.48;;;7.35;;
55063;SDS011;40963;52.168;21.296;2022-12-29T01:35:39;19.27;;;8.40;;
55063;SDS011;40963;52.168;21.296;2022-12-29T01:38:05;19.20;;;8.00;;
55063;SDS011;40963;52.168;21.296;2022-12-29T01:40:30;26.45;;;7.65;;
55063;SDS011;40963;52.168;21.296;2022-12-29T01:42:56;15.63;;;7.18;;
55063;SDS011;40963;52.168;21.296;2022-12-29T01:45:22;17.08;;;7.50;;
55063;SDS011;40963;52.168;21.296;2022-12-29T01:47:48;28.10;;;7.40;;
55063;SDS011;40963;52.168;21.296;2022-12-29T01:55:24;13.70;;;5.75;;
55063;SDS011;40963;52.168;21.296;2022-12-29T01:57:52;12.43;;;5.43;;
55063;SDS011;40963;52.168;21.296;2022-12-29T02:00:21;13.82;;;5.82;;
55063;SDS011;40963;52.168;21.296;2022-12-29T02:02:52;12.00;;;5.53;;
55063;SDS011;40963;52.168;21.296;2022-12-29T02:05:30;12.73;;;5.47;;
55063;SDS011;40963;52.168;21.296;2022-12-29T02:08:07;11.57;;;5.47;;
55063;SDS011;40963;52.168;21.296;2022-12-29T02:10:34;12.88;;;5.32;;
55063;SDS011;40963;52.168;21.296;2022-12-29T02:13:01;17.30;;;6.30;;
55063;SDS011;40963;52.168;21.296;2022-12-29T02:32:29;13.98;;;5.45;;
55063;SDS011;40963;52.168;21.296;2022-12-29T02:35:11;9.57;;;4.93;;
55063;SDS011;40963;52.168;21.296;2022-12-29T02:48:41;13.52;;;5.85;;
55063;SDS011;40963;52.168;21.296;2022-12-29T02:51:23;9.23;;;5.15;;
55063;SDS011;40963;52.168;21.296;2022-12-29T02:54:16;10.85;;;6.05;;
55063;SDS011;40963;52.168;21.296;2022-12-29T02:57:02;17.50;;;5.93;;
55063;SDS011;40963;52.168;21.296;2022-12-29T02:59:27;11.05;;;5.18;;
55063;SDS011;40963;52.168;21.296;2022-12-29T03:02:05;11.32;;;5.80;;
55063;SDS011;40963;52.168;21.296;2022-12-29T03:07:30;13.40;;;6.10;;
55063;SDS011;40963;52.168;21.296;2022-12-29T03:10:03;10.73;;;5.85;;
55063;SDS011;40963;52.168;21.296;2022-12-29T03:12:33;13.32;;;5.90;;
55063;SDS011;40963;52.168;21.296;2022-12-29T03:15:35;18.48;;;6.55;;
55063;SDS011;40963;52.168;21.296;2022-12-29T03:23:44;13.00;;;6.20;;
55063;SDS011;40963;52.168;21.296;2022-12-29T03:26:13;15.65;;;6.90;;
55063;SDS011;40963;52.168;21.296;2022-12-29T03:28:52;13.77;;;6.18;;
55063;SDS011;40963;52.168;21.296;2022-12-29T03:33:46;12.63;;;6.55;;
55063;SDS011;40963;52.168;21.296;2022-12-29T03:36:16;16.35;;;6.78;;
55063;SDS011;40963;52.168;21.296;2022-12-29T03:38:50;17.55;;;6.20;;
55063;SDS011;40963;52.168;21.296;2022-12-29T03:41:26;22.25;;;6.50;;
55063;SDS011;40963;52.168;21.296;2022-12-29T03:43:56;24.23;;;7.78;;
55063;SDS011;40963;52.168;21.296;2022-12-29T03:46:22;22.75;;;6.72;;
55063;SDS011;40963;52.168;21.296;2022-12-29T03:48:47;17.00;;;7.22;;
55063;SDS011;40963;52.168;21.296;2022-12-29T03:51:13;22.80;;;8.05;;
55063;SDS011;40963;52.168;21.296;2022-12-29T03:53:39;20.15;;;8.02;;
55063;SDS011;40963;52.168;21.296;2022-12-29T03:56:04;19.08;;;8.32;;
55063;SDS011;40963;52.168;21.296;2022-12-29T03:58:30;16.73;;;7.43;;
55063;SDS011;40963;52.168;21.296;2022-12-29T04:00:56;28.42;;;8.63;;
55063;SDS011;40963;52.168;21.296;2022-12-29T04:03:22;22.95;;;7.75;;
55063;SDS011;40963;52.168;21.296;2022-12-29T04:05:48;15.93;;;7.20;;
55063;SDS011;40963;52.168;21.296;2022-12-29T04:08:13;19.70;;;8.57;;
55063;SDS011;40963;52.168;21.296;2022-12-29T04:10:39;21.38;;;9.15;;
55063;SDS011;40963;52.168;21.296;2022-12-29T04:13:05;17.38;;;7.75;;
55063;SDS011;40963;52.168;21.296;2022-12-29T04:15:30;17.05;;;7.28;;
55063;SDS011;40963;52.168;21.296;2022-12-29T04:17:56;22.38;;;7.20;;
55063;SDS011;40963;52.168;21.296;2022-12-29T04:20:21;14.50;;;7.13;;
55063;SDS011;40963;52.168;21.296;2022-12-29T04:23:06;14.02;;;7.13;;
55063;SDS011;40963;52.168;21.296;2022-12-29T04:25:32;13.75;;;7.15;;
55063;SDS011;40963;52.168;21.296;2022-12-29T04:27:58;18.60;;;7.57;;
55063;SDS011;40963;52.168;21.296;2022-12-29T04:30:24;15.48;;;7.40;;
55063;SDS011;40963;52.168;21.296;2022-12-29T04:32:50;15.88;;;7.10;;
55063;SDS011;40963;52.168;21.296;2022-12-29T04:35:15;18.58;;;7.13;;
55063;SDS011;40963;52.168;21.296;2022-12-29T04:37:41;16.80;;;7.07;;
55063;SDS011;40963;52.168;21.296;2022-12-29T04:40:07;18.45;;;8.18;;
55063;SDS011;40963;52.168;21.296;2022-12-29T04:42:34;14.40;;;7.38;;
55063;SDS011;40963;52.168;21.296;2022-12-29T04:45:00;15.27;;;6.75;;
55063;SDS011;40963;52.168;21.296;2022-12-29T04:47:25;13.85;;;6.60;;
55063;SDS011;40963;52.168;21.296;2022-12-29T04:49:51;14.07;;;7.05;;
55063;SDS011;40963;52.168;21.296;2022-12-29T04:52:16;14.93;;;6.88;;
55063;SDS011;40963;52.168;21.296;2022-12-29T04:54:42;18.08;;;7.35;;
55063;SDS011;40963;52.168;21.296;2022-12-29T04:57:08;16.50;;;7.05;;
55063;SDS011;40963;52.168;21.296;2022-12-29T04:59:33;16.38;;;7.18;;
55063;SDS011;40963;52.168;21.296;2022-12-29T05:01:59;18.52;;;7.50;;
55063;SDS011;40963;52.168;21.296;2022-12-29T05:04:24;17.42;;;7.30;;
55063;SDS011;40963;52.168;21.296;2022-12-29T05:06:50;17.20;;;6.95;;
55063;SDS011;40963;52.168;21.296;2022-12-29T05:09:16;16.00;;;7.15;;
55063;SDS011;40963;52.168;21.296;2022-12-29T05:11:41;13.43;;;7.10;;
55063;SDS011;40963;52.168;21.296;2022-12-29T05:14:07;20.23;;;6.50;;
55063;SDS011;40963;52.168;21.296;2022-12-29T05:16:33;18.13;;;7.60;;
55063;SDS011;40963;52.168;21.296;2022-12-29T05:18:58;21.38;;;7.25;;
55063;SDS011;40963;52.168;21.296;2022-12-29T05:21:24;16.23;;;7.20;;
55063;SDS011;40963;52.168;21.296;2022-12-29T05:23:50;15.18;;;7.38;;
55063;SDS011;40963;52.168;21.296;2022-12-29T05:26:15;20.15;;;8.50;;
55063;SDS011;40963;52.168;21.296;2022-12-29T05:28:41;18.48;;;7.43;;
55063;SDS011;40963;52.168;21.296;2022-12-29T05:31:07;14.00;;;6.40;;
55063;SDS011;40963;52.168;21.296;2022-12-29T05:33:32;16.08;;;7.18;;
55063;SDS011;40963;52.168;21.296;2022-12-29T05:36:03;15.82;;;7.15;;
55063;SDS011;40963;52.168;21.296;2022-12-29T05:38:32;16.30;;;6.68;;
55063;SDS011;40963;52.168;21.296;2022-12-29T05:40:58;15.95;;;7.30;;
55063;SDS011;40963;52.168;21.296;2022-12-29T05:43:24;15.27;;;7.20;;
55063;SDS011;40963;52.168;21.296;2022-12-29T05:45:49;17.30;;;7.07;;
55063;SDS011;40963;52.168;21.296;2022-12-29T05:48:15;16.92;;;6.72;;
55063;SDS011;40963;52.168;21.296;2022-12-29T05:50:41;16.02;;;6.57;;
55063;SDS011;40963;52.168;21.296;2022-12-29T05:53:06;15.75;;;6.13;;
55063;SDS011;40963;52.168;21.296;2022-12-29T05:55:32;14.88;;;7.63;;
55063;SDS011;40963;52.168;21.296;2022-12-29T05:57:57;15.23;;;7.07;;
55063;SDS011;40963;52.168;21.296;2022-12-29T06:00:23;17.75;;;8.05;;
55063;SDS011;40963;52.168;21.296;2022-12-29T06:02:49;15.57;;;7.05;;
55063;SDS011;40963;52.168;21.296;2022-12-29T06:05:15;18.33;;;6.60;;
55063;SDS011;40963;52.168;21.296;2022-12-29T06:07:40;15.93;;;6.63;;
55063;SDS011;40963;52.168;21.296;2022-12-29T06:10:06;17.60;;;7.30;;
55063;SDS011;40963;52.168;21.296;2022-12-29T06:12:32;15.43;;;6.78;;
55063;SDS011;40963;52.168;21.296;2022-12-29T06:14:58;15.60;;;6.95;;
55063;SDS011;40963;52.168;21.296;2022-12-29T06:17:23;17.13;;;6.70;;
55063;SDS011;40963;52.168;21.296;2022-12-29T06:19:49;14.70;;;6.68;;
55063;SDS011;40963;52.168;21.296;2022-12-29T06:22:15;17.13;;;7.03;;
55063;SDS011;40963;52.168;21.296;2022-12-29T06:24:40;15.85;;;6.47;;
55063;SDS011;40963;52.168;21.296;2022-12-29T06:27:06;14.52;;;6.43;;
55063;SDS011;40963;52.168;21.296;2022-12-29T06:29:32;16.67;;;6.50;;
55063;SDS011;40963;52.168;21.296;2022-12-29T06:31:57;14.45;;;6.35;;
55063;SDS011;40963;52.168;21.296;2022-12-29T06:34:23;17.08;;;6.72;;
55063;SDS011;40963;52.168;21.296;2022-12-29T06:36:50;14.05;;;5.85;;
55063;SDS011;40963;52.168;21.296;2022-12-29T06:39:15;14.20;;;6.82;;
55063;SDS011;40963;52.168;21.296;2022-12-29T06:41:41;16.45;;;5.82;;
55063;SDS011;40963;52.168;21.296;2022-12-29T06:44:07;12.77;;;5.97;;
55063;SDS011;40963;52.168;21.296;2022-12-29T06:46:32;13.30;;;6.63;;
55063;SDS011;40963;52.168;21.296;2022-12-29T06:48:58;11.98;;;5.65;;
55063;SDS011;40963;52.168;21.296;2022-12-29T06:51:24;15.80;;;5.65;;
55063;SDS011;40963;52.168;21.296;2022-12-29T06:53:49;14.48;;;6.57;;
55063;SDS011;40963;52.168;21.296;2022-12-29T06:56:15;12.70;;;5.90;;
55063;SDS011;40963;52.168;21.296;2022-12-29T06:58:40;15.32;;;6.57;;
55063;SDS011;40963;52.168;21.296;2022-12-29T07:01:06;12.23;;;5.65;;
55063;SDS011;40963;52.168;21.296;2022-12-29T07:03:32;15.93;;;6.95;;
55063;SDS011;40963;52.168;21.296;2022-12-29T07:05:57;14.95;;;6.60;;
55063;SDS011;40963;52.168;21.296;2022-12-29T07:08:23;18.27;;;6.32;;
55063;SDS011;40963;52.168;21.296;2022-12-29T07:10:49;21.98;;;7.45;;
55063;SDS011;40963;52.168;21.296;2022-12-29T07:13:15;10.82;;;6.35;;
55063;SDS011;40963;52.168;21.296;2022-12-29T07:15:40;14.15;;;6.75;;
55063;SDS011;40963;52.168;21.296;2022-12-29T07:18:06;13.35;;;6.50;;
55063;SDS011;40963;52.168;21.296;2022-12-29T07:20:32;14.73;;;7.07;;
55063;SDS011;40963;52.168;21.296;2022-12-29T07:22:58;16.92;;;6.97;;
55063;SDS011;40963;52.168;21.296;2022-12-29T07:25:23;15.15;;;6.53;;
55063;SDS011;40963;52.168;21.296;2022-12-29T07:27:49;16.90;;;6.85;;
55063;SDS011;40963;52.168;21.296;2022-12-29T07:30:15;14.60;;;6.38;;
55063;SDS011;40963;52.168;21.296;2022-12-29T07:32:41;12.02;;;6.63;;
55063;SDS011;40963;52.168;21.296;2022-12-29T07:35:06;13.52;;;6.38;;
55063;SDS011;40963;52.168;21.296;2022-12-29T07:37:33;14.23;;;6.43;;
55063;SDS011;40963;52.168;21.296;2022-12-29T07:40:00;14.40;;;6.30;;
55063;SDS011;40963;52.168;21.296;2022-12-29T07:42:26;24.05;;;7.28;;
55063;SDS011;40963;52.168;21.296;2022-12-29T07:44:51;13.60;;;6.45;;
55063;SDS011;40963;52.168;21.296;2022-12-29T07:47:17;12.93;;;5.75;;
55063;SDS011;40963;52.168;21.296;2022-12-29T07:49:43;12.82;;;5.90;;
55063;SDS011;40963;52.168;21.296;2022-12-29T07:52:08;14.45;;;5.93;;
55063;SDS011;40963;52.168;21.296;2022-12-29T07:54:34;9.50;;;4.95;;
55063;SDS011;40963;52.168;21.296;2022-12-29T07:57:00;9.93;;;5.35;;
55063;SDS011;40963;52.168;21.296;2022-12-29T07:59:25;12.73;;;6.00;;
55063;SDS011;40963;52.168;21.296;2022-12-29T08:01:51;12.80;;;5.93;;
55063;SDS011;40963;52.168;21.296;2022-12-29T08:04:17;13.77;;;5.78;;
55063;SDS011;40963;52.168;21.296;2022-12-29T08:06:43;11.63;;;5.55;;
55063;SDS011;40963;52.168;21.296;2022-12-29T08:09:10;12.82;;;5.35;;
55063;SDS011;40963;52.168;21.296;2022-12-29T08:11:36;14.88;;;5.45;;
55063;SDS011;40963;52.168;21.296;2022-12-29T08:14:02;13.90;;;6.10;;
55063;SDS011;40963;52.168;21.296;2022-12-29T08:16:28;12.25;;;5.45;;
55063;SDS011;40963;52.168;21.296;2022-12-29T08:18:54;11.43;;;5.57;;
55063;SDS011;40963;52.168;21.296;2022-12-29T08:21:19;13.77;;;6.25;;
55063;SDS011;40963;52.168;21.296;2022-12-29T08:23:45;17.65;;;6.05;;
55063;SDS011;40963;52.168;21.296;2022-12-29T08:26:12;13.45;;;5.88;;
55063;SDS011;40963;52.168;21.296;2022-12-29T08:28:38;12.18;;;5.20;;
55063;SDS011;40963;52.168;21.296;2022-12-29T08:31:04;14.52;;;5.82;;
55063;SDS011;40963;52.168;21.296;2022-12-29T08:33:30;13.68;;;5.35;;
55063;SDS011;40963;52.168;21.296;2022-12-29T08:35:59;13.88;;;5.78;;
55063;SDS011;40963;52.168;21.296;2022-12-29T08:38:29;11.57;;;5.63;;
55063;SDS011;40963;52.168;21.296;2022-12-29T08:40:56;13.23;;;5.60;;
55063;SDS011;40963;52.168;21.296;2022-12-29T08:43:23;12.00;;;6.10;;
55063;SDS011;40963;52.168;21.296;2022-12-29T08:45:49;12.63;;;5.85;;
55063;SDS011;40963;52.168;21.296;2022-12-29T08:48:15;13.95;;;6.00;;
55063;SDS011;40963;52.168;21.296;2022-12-29T08:50:44;11.15;;;5.25;;
55063;SDS011;40963;52.168;21.296;2022-12-29T08:53:11;11.30;;;5.43;;
55063;SDS011;40963;52.168;21.296;2022-12-29T08:55:36;15.10;;;7.25;;
55063;SDS011;40963;52.168;21.296;2022-12-29T08:58:02;13.93;;;6.10;;
55063;SDS011;40963;52.168;21.296;2022-12-29T09:00:28;25.55;;;11.98;;
55063;SDS011;40963;52.168;21.296;2022-12-29T09:02:53;13.63;;;7.38;;
55063;SDS011;40963;52.168;21.296;2022-12-29T09:05:19;31.52;;;12.73;;
55063;SDS011;40963;52.168;21.296;2022-12-29T09:07:45;12.70;;;5.95;;
55063;SDS011;40963;52.168;21.296;2022-12-29T09:10:10;16.58;;;7.65;;
55063;SDS011;40963;52.168;21.296;2022-12-29T09:12:36;24.15;;;12.25;;
55063;SDS011;40963;52.168;21.296;2022-12-29T09:15:02;13.63;;;6.53;;
55063;SDS011;40963;52.168;21.296;2022-12-29T09:17:28;15.95;;;7.70;;
55063;SDS011;40963;52.168;21.296;2022-12-29T09:20:26;14.98;;;6.40;;
55063;SDS011;40963;52.168;21.296;2022-12-29T09:22:52;15.52;;;6.65;;
55063;SDS011;40963;52.168;21.296;2022-12-29T09:25:18;20.80;;;8.80;;
55063;SDS011;40963;52.168;21.296;2022-12-29T09:27:44;11.25;;;6.32;;
55063;SDS011;40963;52.168;21.296;2022-12-29T09:30:12;21.38;;;6.78;;
55063;SDS011;40963;52.168;21.296;2022-12-29T09:32:39;11.55;;;6.00;;
55063;SDS011;40963;52.168;21.296;2022-12-29T09:35:05;16.48;;;8.02;;
55063;SDS011;40963;52.168;21.296;2022-12-29T09:37:32;15.10;;;5.82;;
55063;SDS011;40963;52.168;21.296;2022-12-29T09:39:58;13.73;;;6.82;;
55063;SDS011;40963;52.168;21.296;2022-12-29T09:47:51;14.55;;;6.55;;
55063;SDS011;40963;52.168;21.296;2022-12-29T09:50:33;8.50;;;5.00;;
55063;SDS011;40963;52.168;21.296;2022-12-29T09:55:37;9.98;;;5.53;;
55063;SDS011;40963;52.168;21.296;2022-12-29T09:58:12;17.05;;;6.90;;
55063;SDS011;40963;52.168;21.296;2022-12-29T10:01:06;16.35;;;8.15;;
55063;SDS011;40963;52.168;21.296;2022-12-29T10:09:11;18.77;;;8.02;;
55063;SDS011;40963;52.168;21.296;2022-12-29T10:22:56;12.50;;;7.03;;
55063;SDS011;40963;52.168;21.296;2022-12-29T10:25:45;9.70;;;5.43;;
55063;SDS011;40963;52.168;21.296;2022-12-29T10:28:20;13.00;;;5.55;;
55063;SDS011;40963;52.168;21.296;2022-12-29T10:30:54;14.73;;;4.95;;
55063;SDS011;40963;52.168;21.296;2022-12-29T10:33:24;10.77;;;5.07;;
55063;SDS011;40963;52.168;21.296;2022-12-29T10:35:58;9.95;;;5.13;;
55063;SDS011;40963;52.168;21.296;2022-12-29T10:38:39;10.82;;;5.53;;
55063;SDS011;40963;52.168;21.296;2022-12-29T10:41:15;12.18;;;4.90;;
55063;SDS011;40963;52.168;21.296;2022-12-29T10:46:13;11.32;;;5.05;;
55063;SDS011;40963;52.168;21.296;2022-12-29T10:48:42;10.65;;;5.05;;
55063;SDS011;40963;52.168;21.296;2022-12-29T10:51:11;8.85;;;5.25;;
55063;SDS011;40963;52.168;21.296;2022-12-29T10:54:03;15.30;;;5.53;;
55063;SDS011;40963;52.168;21.296;2022-12-29T10:56:38;9.70;;;5.60;;
55063;SDS011;40963;52.168;21.296;2022-12-29T10:59:26;9.88;;;4.72;;
55063;SDS011;40963;52.168;21.296;2022-12-29T11:07:06;13.48;;;5.05;;
55063;SDS011;40963;52.168;21.296;2022-12-29T11:09:34;13.15;;;5.38;;
55063;SDS011;40963;52.168;21.296;2022-12-29T11:12:21;13.70;;;5.38;;
55063;SDS011;40963;52.168;21.296;2022-12-29T11:15:01;13.70;;;4.90;;
55063;SDS011;40963;52.168;21.296;2022-12-29T11:17:30;17.75;;;5.93;;
55063;SDS011;40963;52.168;21.296;2022-12-29T11:20:29;11.82;;;4.93;;
55063;SDS011;40963;52.168;21.296;2022-12-29T11:23:04;12.23;;;5.45;;
55063;SDS011;40963;52.168;21.296;2022-12-29T11:28:35;10.73;;;5.13;;
55063;SDS011;40963;52.168;21.296;2022-12-29T11:31:02;11.65;;;5.18;;
55063;SDS011;40963;52.168;21.296;2022-12-29T11:33:29;13.20;;;5.43;;
55063;SDS011;40963;52.168;21.296;2022-12-29T11:35:59;14.20;;;5.50;;
55063;SDS011;40963;52.168;21.296;2022-12-29T11:38:33;9.18;;;4.60;;
55063;SDS011;40963;52.168;21.296;2022-12-29T11:41:05;11.05;;;5.13;;
55063;SDS011;40963;52.168;21.296;2022-12-29T11:43:39;8.20;;;4.15;;
55063;SDS011;40963;52.168;21.296;2022-12-29T11:46:07;13.88;;;5.32;;
55063;SDS011;40963;52.168;21.296;2022-12-29T11:48:47;9.52;;;4.72;;
55063;SDS011;40963;52.168;21.296;2022-12-29T11:51:20;11.32;;;5.28;;
55063;SDS011;40963;52.168;21.296;2022-12-29T11:53:59;11.35;;;5.07;;
55063;SDS011;40963;52.168;21.296;2022-12-29T11:56:35;9.32;;;4.72;;
55063;SDS011;40963;52.168;21.296;2022-12-29T12:01:56;10.70;;;5.32;;
55063;SDS011;40963;52.168;21.296;2022-12-29T12:04:25;12.82;;;4.97;;
55063;SDS011;40963;52.168;21.296;2022-12-29T12:09:24;10.07;;;5.25;;
55063;SDS011;40963;52.168;21.296;2022-12-29T12:12:07;11.57;;;4.95;;
55063;SDS011;40963;52.168;21.296;2022-12-29T12:14:45;10.38;;;5.10;;
55063;SDS011;40963;52.168;21.296;2022-12-29T12:17:25;16.15;;;5.57;;
55063;SDS011;40963;52.168;21.296;2022-12-29T12:26:04;12.73;;;5.47;;
55063;SDS011;40963;52.168;21.296;2022-12-29T12:34:13;15.98;;;5.97;;
55063;SDS011;40963;52.168;21.296;2022-12-29T12:40:21;12.68;;;6.03;;
55063;SDS011;40963;52.168;21.296;2022-12-29T12:46:08;16.45;;;5.97;;
55063;SDS011;40963;52.168;21.296;2022-12-29T12:48:59;16.15;;;6.03;;
55063;SDS011;40963;52.168;21.296;2022-12-29T13:10:16;52.53;;;18.02;;
55063;SDS011;40963;52.168;21.296;2022-12-29T13:13:09;63.35;;;22.35;;
55063;SDS011;40963;52.168;21.296;2022-12-29T13:15:50;20.63;;;8.98;;
55063;SDS011;40963;52.168;21.296;2022-12-29T13:18:50;34.13;;;13.77;;
55063;SDS011;40963;52.168;21.296;2022-12-29T13:29:45;19.95;;;8.18;;
55063;SDS011;40963;52.168;21.296;2022-12-29T13:38:39;26.33;;;12.10;;
55063;SDS011;40963;52.168;21.296;2022-12-29T13:40:52;16.90;;;7.20;;
55063;SDS011;40963;52.168;21.296;2022-12-29T13:43:25;19.95;;;7.28;;
55063;SDS011;40963;52.168;21.296;2022-12-29T13:45:59;14.48;;;8.07;;
55063;SDS011;40963;52.168;21.296;2022-12-29T13:48:53;12.82;;;7.00;;
55063;SDS011;40963;52.168;21.296;2022-12-29T13:54:56;43.90;;;21.75;;
55063;SDS011;40963;52.168;21.296;2022-12-29T13:57:35;25.98;;;12.32;;
55063;SDS011;40963;52.168;21.296;2022-12-29T14:00:15;16.02;;;7.53;;
55063;SDS011;40963;52.168;21.296;2022-12-29T14:02:56;17.55;;;7.97;;
55063;SDS011;40963;52.168;21.296;2022-12-29T14:05:35;11.45;;;6.43;;
55063;SDS011;40963;52.168;21.296;2022-12-29T14:08:02;15.95;;;6.72;;
55063;SDS011;40963;52.168;21.296;2022-12-29T14:10:37;13.02;;;6.85;;
55063;SDS011;40963;52.168;21.296;2022-12-29T14:13:12;15.13;;;7.03;;
55063;SDS011;40963;52.168;21.296;2022-12-29T14:15:44;16.00;;;7.20;;
55063;SDS011;40963;52.168;21.296;2022-12-29T14:21:00;20.45;;;9.98;;
55063;SDS011;40963;52.168;21.296;2022-12-29T14:23:44;22.30;;;11.05;;
55063;SDS011;40963;52.168;21.296;2022-12-29T14:26:14;24.67;;;11.15;;
55063;SDS011;40963;52.168;21.296;2022-12-29T14:29:15;30.45;;;12.10;;
55063;SDS011;40963;52.168;21.296;2022-12-29T14:31:50;45.08;;;19.90;;
55063;SDS011;40963;52.168;21.296;2022-12-29T14:39:31;23.33;;;11.15;;
55063;SDS011;40963;52.168;21.296;2022-12-29T14:45:35;22.45;;;10.13;;
55063;SDS011;40963;52.168;21.296;2022-12-29T14:47:50;15.43;;;8.20;;
55063;SDS011;40963;52.168;21.296;2022-12-29T14:55:30;17.27;;;8.60;;
55063;SDS011;40963;52.168;21.296;2022-12-29T15:00:51;19.80;;;11.27;;
55063;SDS011;40963;52.168;21.296;2022-12-29T15:03:18;25.85;;;10.80;;
55063;SDS011;40963;52.168;21.296;2022-12-29T15:05:51;30.55;;;11.68;;
55063;SDS011;40963;52.168;21.296;2022-12-29T15:08:20;26.30;;;11.32;;
55063;SDS011;40963;52.168;21.296;2022-12-29T15:10:53;18.40;;;9.20;;
55063;SDS011;40963;52.168;21.296;2022-12-29T15:13:34;19.45;;;9.00;;
55063;SDS011;40963;52.168;21.296;2022-12-29T15:16:02;20.00;;;8.88;;
55063;SDS011;40963;52.168;21.296;2022-12-29T15:18:29;22.73;;;9.52;;
55063;SDS011;40963;52.168;21.296;2022-12-29T15:21:00;21.20;;;8.90;;
55063;SDS011;40963;52.168;21.296;2022-12-29T15:23:31;21.08;;;8.32;;
55063;SDS011;40963;52.168;21.296;2022-12-29T15:26:02;17.77;;;8.93;;
55063;SDS011;40963;52.168;21.296;2022-12-29T15:28:40;24.65;;;9.48;;
55063;SDS011;40963;52.168;21.296;2022-12-29T15:31:10;14.23;;;7.25;;
55063;SDS011;40963;52.168;21.296;2022-12-29T15:33:42;24.10;;;9.82;;
55063;SDS011;40963;52.168;21.296;2022-12-29T15:36:10;20.65;;;10.18;;
55063;SDS011;40963;52.168;21.296;2022-12-29T15:38:39;22.02;;;9.77;;
55063;SDS011;40963;52.168;21.296;2022-12-29T15:41:29;16.48;;;7.85;;
55063;SDS011;40963;52.168;21.296;2022-12-29T15:44:09;23.38;;;9.45;;
55063;SDS011;40963;52.168;21.296;2022-12-29T15:46:41;20.02;;;9.60;;
55063;SDS011;40963;52.168;21.296;2022-12-29T15:49:07;25.15;;;10.75;;
55063;SDS011;40963;52.168;21.296;2022-12-29T15:51:37;22.83;;;10.50;;
55063;SDS011;40963;52.168;21.296;2022-12-29T15:54:04;20.33;;;10.77;;
55063;SDS011;40963;52.168;21.296;2022-12-29T15:56:32;25.23;;;9.90;;
55063;SDS011;40963;52.168;21.296;2022-12-29T15:58:58;24.08;;;12.02;;
55063;SDS011;40963;52.168;21.296;2022-12-29T16:01:27;18.48;;;9.27;;
55063;SDS011;40963;52.168;21.296;2022-12-29T16:03:57;34.42;;;14.60;;
55063;SDS011;40963;52.168;21.296;2022-12-29T16:09:09;22.65;;;8.18;;
55063;SDS011;40963;52.168;21.296;2022-12-29T16:11:50;19.85;;;8.20;;
55063;SDS011;40963;52.168;21.296;2022-12-29T16:14:24;22.75;;;8.05;;
55063;SDS011;40963;52.168;21.296;2022-12-29T16:16:57;19.17;;;8.45;;
55063;SDS011;40963;52.168;21.296;2022-12-29T16:19:32;18.98;;;10.00;;
55063;SDS011;40963;52.168;21.296;2022-12-29T16:22:01;16.02;;;8.25;;
55063;SDS011;40963;52.168;21.296;2022-12-29T16:24:29;19.42;;;9.95;;
55063;SDS011;40963;52.168;21.296;2022-12-29T16:27:14;20.08;;;8.40;;
55063;SDS011;40963;52.168;21.296;2022-12-29T16:29:48;21.70;;;10.40;;
55063;SDS011;40963;52.168;21.296;2022-12-29T16:32:34;15.35;;;7.85;;
55063;SDS011;40963;52.168;21.296;2022-12-29T16:35:16;20.33;;;8.52;;
55063;SDS011;40963;52.168;21.296;2022-12-29T16:37:46;23.90;;;12.30;;
55063;SDS011;40963;52.168;21.296;2022-12-29T16:40:20;26.35;;;13.45;;
55063;SDS011;40963;52.168;21.296;2022-12-29T16:42:53;23.27;;;9.65;;
55063;SDS011;40963;52.168;21.296;2022-12-29T16:50:39;25.05;;;12.05;;
55063;SDS011;40963;52.168;21.296;2022-12-29T16:55:49;21.95;;;9.57;;
55063;SDS011;40963;52.168;21.296;2022-12-29T16:58:18;18.42;;;8.18;;
55063;SDS011;40963;52.168;21.296;2022-12-29T17:00:52;22.08;;;9.50;;
55063;SDS011;40963;52.168;21.296;2022-12-29T17:03:21;23.85;;;11.15;;
55063;SDS011;40963;52.168;21.296;2022-12-29T17:05:47;21.38;;;8.95;;
55063;SDS011;40963;52.168;21.296;2022-12-29T17:08:19;17.83;;;9.25;;
55063;SDS011;40963;52.168;21.296;2022-12-29T17:10:51;17.17;;;9.15;;
55063;SDS011;40963;52.168;21.296;2022-12-29T17:13:38;18.08;;;8.23;;
55063;SDS011;40963;52.168;21.296;2022-12-29T17:16:07;16.98;;;7.68;;
55063;SDS011;40963;52.168;21.296;2022-12-29T17:18:35;17.33;;;7.30;;
55063;SDS011;40963;52.168;21.296;2022-12-29T17:21:01;15.38;;;7.88;;
55063;SDS011;40963;52.168;21.296;2022-12-29T17:23:27;16.40;;;7.53;;
55063;SDS011;40963;52.168;21.296;2022-12-29T17:25:56;20.40;;;9.93;;
55063;SDS011;40963;52.168;21.296;2022-12-29T17:28:23;19.52;;;9.95;;
55063;SDS011;40963;52.168;21.296;2022-12-29T17:30:55;16.02;;;7.15;;